createdAt,value
2023-04-02T00:01:41.214Z,13.90
2023-04-02T00:04:23.170Z,14.00
2023-04-02T00:06:54.474Z,14.10
2023-04-02T00:09:34.989Z,14.00
2023-04-02T00:12:15.539Z,14.00
2023-04-02T00:14:47.749Z,13.90
2023-04-02T00:17:16.764Z,13.90
2023-04-02T00:19:47.930Z,13.90
2023-04-02T00:22:18.571Z,13.80
2023-04-02T00:24:51.130Z,13.90
2023-04-02T00:27:20.616Z,13.80
2023-04-02T00:29:49.886Z,13.80
2023-04-02T00:32:23.451Z,13.80
2023-04-02T00:34:52.040Z,13.80
2023-04-02T00:37:25.324Z,13.70
2023-04-02T00:39:57.853Z,13.80
2023-04-02T00:42:26.783Z,13.80
2023-04-02T00:44:56.030Z,13.80
2023-04-02T00:47:26.968Z,13.90
2023-04-02T00:49:58.228Z,13.90
2023-04-02T00:52:29.132Z,13.90
2023-04-02T00:55:02.509Z,13.80
2023-04-02T00:57:33.740Z,13.80
2023-04-02T01:00:08.344Z,13.80
2023-04-02T01:02:38.528Z,13.80
2023-04-02T01:05:22.000Z,13.70
2023-04-02T01:07:59.324Z,13.70
2023-04-02T01:10:33.452Z,13.80
2023-04-02T01:13:07.508Z,13.70
2023-04-02T01:15:38.639Z,13.70
2023-04-02T01:18:18.745Z,13.60
2023-04-02T01:21:14.103Z,13.60
2023-04-02T01:23:47.965Z,13.40
2023-04-02T01:26:22.518Z,13.40
2023-04-02T01:29:01.990Z,13.30
2023-04-02T01:31:31.163Z,13.30
2023-04-02T01:34:00.114Z,13.30
2023-04-02T01:36:32.474Z,13.30
2023-04-02T01:39:04.843Z,13.30
2023-04-02T01:41:35.770Z,13.20
2023-04-02T01:44:07.863Z,13.20
2023-04-02T01:46:38.158Z,13.20
2023-04-02T01:49:12.888Z,13.30
2023-04-02T01:51:43.436Z,13.30
2023-04-02T01:54:14.029Z,13.30
2023-04-02T01:56:43.703Z,13.30
2023-04-02T01:59:14.411Z,13.20
2023-04-02T02:01:44.532Z,13.20
2023-04-02T02:04:14.082Z,13.10
2023-04-02T02:06:42.995Z,13.00
2023-04-02T02:09:16.514Z,13.00
2023-04-02T02:11:45.090Z,12.90
2023-04-02T02:14:17.857Z,12.90
2023-04-02T02:16:47.213Z,12.80
2023-04-02T02:19:21.182Z,12.60
2023-04-02T02:21:51.698Z,12.60
2023-04-02T02:24:22.016Z,12.50
2023-04-02T02:26:52.321Z,12.40
2023-04-02T02:29:23.154Z,12.30
2023-04-02T02:31:53.756Z,12.30
2023-04-02T02:34:24.187Z,12.20
2023-04-02T02:36:54.793Z,12.10
2023-04-02T02:39:25.677Z,12.10
2023-04-02T02:41:57.216Z,12.00
2023-04-02T02:44:28.700Z,12.00
2023-04-02T02:47:00.239Z,11.90
2023-04-02T02:49:29.932Z,11.90
2023-04-02T02:52:01.187Z,11.80
2023-04-02T02:54:31.636Z,11.80
2023-04-02T02:57:01.893Z,11.80
2023-04-02T02:59:32.488Z,11.90
2023-04-02T03:02:01.601Z,11.90
2023-04-02T03:04:30.897Z,12.00
2023-04-02T03:06:59.686Z,11.90
2023-04-02T03:09:35.223Z,12.00
2023-04-02T03:12:08.715Z,12.00
2023-04-02T03:14:41.231Z,12.00
2023-04-02T03:17:12.571Z,12.20
2023-04-02T03:19:44.366Z,12.10
2023-04-02T03:22:15.382Z,12.30
2023-04-02T03:24:48.559Z,12.40
2023-04-02T03:27:19.676Z,12.40
2023-04-02T03:29:54.081Z,12.40
2023-04-02T03:32:24.675Z,12.40
2023-04-02T03:34:54.774Z,12.40
2023-04-02T03:37:24.903Z,12.50
2023-04-02T03:39:56.230Z,12.50
2023-04-02T03:42:26.366Z,12.40
2023-04-02T03:44:58.029Z,12.40
2023-04-02T03:47:31.418Z,12.30
2023-04-02T03:50:02.326Z,12.30
2023-04-02T03:52:31.230Z,12.30
2023-04-02T03:55:01.771Z,12.30
2023-04-02T03:57:33.269Z,12.30
2023-04-02T04:00:06.348Z,12.40
2023-04-02T04:02:36.457Z,12.30
2023-04-02T04:05:06.957Z,12.20
2023-04-02T04:07:37.251Z,12.00
2023-04-02T04:10:07.458Z,11.90
2023-04-02T04:12:36.829Z,11.80
2023-04-02T04:15:08.637Z,11.80
2023-04-02T04:17:42.114Z,11.70
2023-04-02T04:20:17.330Z,11.70
2023-04-02T04:22:45.848Z,11.70
2023-04-02T04:25:21.135Z,11.60
2023-04-02T04:27:56.976Z,11.60
2023-04-02T04:30:29.029Z,11.50
2023-04-02T04:32:59.191Z,11.50
2023-04-02T04:35:29.915Z,11.40
2023-04-02T04:37:59.902Z,11.40
2023-04-02T04:40:30.669Z,11.30
2023-04-02T04:43:01.072Z,11.30
2023-04-02T04:45:40.485Z,11.20
2023-04-02T04:48:10.814Z,11.20
2023-04-02T04:50:42.161Z,11.20
2023-04-02T04:53:16.738Z,11.20
2023-04-02T04:55:45.680Z,11.30
2023-04-02T04:58:19.124Z,11.30
2023-04-02T05:00:54.409Z,11.20
2023-04-02T05:03:28.395Z,11.20
2023-04-02T05:06:01.135Z,11.10
2023-04-02T05:08:35.704Z,11.10
2023-04-02T05:11:06.189Z,11.10
2023-04-02T05:13:37.372Z,11.10
2023-04-02T05:16:12.216Z,11.20
2023-04-02T05:18:41.884Z,11.20
2023-04-02T05:21:16.670Z,11.30
2023-04-02T05:23:48.356Z,11.30
2023-04-02T05:26:18.056Z,11.30
2023-04-02T05:28:48.422Z,11.40
2023-04-02T05:31:21.177Z,11.50
2023-04-02T05:33:50.414Z,11.50
2023-04-02T05:36:23.670Z,11.50
2023-04-02T05:38:53.299Z,11.50
2023-04-02T05:41:26.929Z,11.60
2023-04-02T05:44:00.062Z,11.60
2023-04-02T05:46:32.829Z,11.50
2023-04-02T05:49:01.475Z,11.50
2023-04-02T05:51:32.103Z,11.60
2023-04-02T05:54:02.251Z,11.50
2023-04-02T05:56:32.127Z,11.50
2023-04-02T05:59:04.741Z,11.50
2023-04-02T06:01:38.008Z,11.50
2023-04-02T06:04:09.657Z,11.50
2023-04-02T06:06:46.549Z,11.50
2023-04-02T06:09:18.323Z,11.50
2023-04-02T06:11:47.536Z,11.50
2023-04-02T06:14:17.090Z,11.50
2023-04-02T06:16:47.437Z,11.60
2023-04-02T06:19:20.191Z,11.60
2023-04-02T06:21:50.471Z,11.60
2023-04-02T06:24:21.150Z,11.70
2023-04-02T06:26:52.104Z,11.80
2023-04-02T06:29:23.331Z,11.80
2023-04-02T06:31:55.550Z,12.00
2023-04-02T06:34:25.333Z,12.10
2023-04-02T06:36:56.814Z,12.20
2023-04-02T06:39:26.211Z,12.30
2023-04-02T06:41:57.128Z,12.40
2023-04-02T06:44:28.338Z,12.50
2023-04-02T06:47:00.194Z,12.60
2023-04-02T06:49:32.059Z,12.70
2023-04-02T06:52:01.656Z,12.70
2023-04-02T06:54:30.196Z,12.80
2023-04-02T06:56:58.723Z,12.80
2023-04-02T06:59:27.736Z,12.90
2023-04-02T07:01:59.031Z,13.00
2023-04-02T07:04:28.997Z,13.10
2023-04-02T07:06:57.524Z,13.30
2023-04-02T07:09:25.948Z,13.30
2023-04-02T07:11:54.466Z,13.30
2023-04-02T07:14:22.898Z,13.50
2023-04-02T07:16:52.125Z,13.50
2023-04-02T07:19:21.989Z,13.50
2023-04-02T07:21:51.944Z,13.60
2023-04-02T07:24:20.556Z,13.70
2023-04-02T07:26:49.107Z,13.70
2023-04-02T07:29:17.989Z,13.80
2023-04-02T07:31:46.537Z,13.80
2023-04-02T07:34:15.113Z,13.90
2023-04-02T07:36:43.496Z,13.90
2023-04-02T07:39:13.442Z,14.00
2023-04-02T07:41:56.817Z,14.20
2023-04-02T07:44:25.500Z,14.30
2023-04-02T07:46:54.080Z,14.60
2023-04-02T07:49:22.928Z,14.60
2023-04-02T07:51:53.006Z,14.80
2023-04-02T07:54:22.910Z,14.90
2023-04-02T07:56:51.433Z,15.10
2023-04-02T07:59:19.981Z,15.20
2023-04-02T08:01:48.577Z,15.30
2023-04-02T08:04:18.551Z,15.40
2023-04-02T08:06:47.530Z,15.30
2023-04-02T08:09:16.349Z,15.40
2023-04-02T08:11:46.722Z,15.50
2023-04-02T08:14:15.535Z,15.50
2023-04-02T08:16:48.131Z,15.60
2023-04-02T08:19:16.913Z,15.70
2023-04-02T08:21:45.783Z,15.90
2023-04-02T08:24:14.260Z,16.10
2023-04-02T08:26:43.961Z,16.20
2023-04-02T08:29:15.213Z,16.20
2023-04-02T08:31:43.756Z,16.20
2023-04-02T08:34:12.226Z,16.30
2023-04-02T08:36:42.592Z,16.40
2023-04-02T08:39:12.748Z,16.50
2023-04-02T08:41:43.803Z,16.60
2023-04-02T08:44:18.270Z,16.70
2023-04-02T08:46:49.415Z,16.50
2023-04-02T08:49:19.193Z,16.70
2023-04-02T08:51:48.542Z,16.60
2023-04-02T08:54:20.637Z,16.60
2023-04-02T08:56:51.609Z,16.70
2023-04-02T08:59:25.783Z,16.50
2023-04-02T09:01:56.142Z,16.60
2023-04-02T09:04:26.063Z,16.50
2023-04-02T09:06:56.195Z,16.40
2023-04-02T09:09:25.138Z,16.50
2023-04-02T09:11:54.628Z,16.70
2023-04-02T09:14:27.904Z,16.60
2023-04-02T09:16:56.958Z,16.70
2023-04-02T09:19:27.262Z,16.70
2023-04-02T09:22:06.978Z,16.50
2023-04-02T09:24:35.861Z,16.50
2023-04-02T09:27:04.380Z,16.40
2023-04-02T09:29:45.463Z,16.20
2023-04-02T09:32:24.402Z,16.20
2023-04-02T09:35:15.138Z,16.00
2023-04-02T09:37:47.708Z,15.90
2023-04-02T09:40:33.886Z,16.00
2023-04-02T09:43:07.505Z,16.10
2023-04-02T09:45:37.650Z,16.20
2023-04-02T09:48:16.575Z,16.30
2023-04-02T09:50:45.185Z,16.50
2023-04-02T09:53:29.060Z,16.50
2023-04-02T09:56:09.575Z,16.50
2023-04-02T09:58:38.308Z,16.50
2023-04-02T10:01:21.030Z,16.60
2023-04-02T10:03:49.512Z,16.30
2023-04-02T10:06:18.095Z,16.30
2023-04-02T10:08:46.780Z,16.30
2023-04-02T10:11:16.250Z,16.20
2023-04-02T10:13:50.273Z,16.20
2023-04-02T10:16:21.916Z,16.20
2023-04-02T10:18:52.264Z,16.10
2023-04-02T10:21:22.254Z,16.10
2023-04-02T10:23:50.703Z,16.00
2023-04-02T10:26:34.035Z,16.10
2023-04-02T10:29:09.444Z,16.30
2023-04-02T10:31:45.367Z,16.10
2023-04-02T10:34:17.797Z,16.20
2023-04-02T10:36:50.625Z,16.20
2023-04-02T10:39:21.556Z,16.00
2023-04-02T10:41:54.514Z,16.10
2023-04-02T10:44:31.724Z,16.20
2023-04-02T10:47:13.019Z,16.30
2023-04-02T10:49:43.470Z,16.30
2023-04-02T10:52:14.410Z,16.40
2023-04-02T10:54:46.555Z,16.30
2023-04-02T10:57:20.692Z,16.30
2023-04-02T10:59:53.394Z,16.30
2023-04-02T11:02:27.733Z,16.50
2023-04-02T11:05:01.204Z,16.50
2023-04-02T11:07:32.501Z,16.50
2023-04-02T11:10:01.284Z,16.60
2023-04-02T11:12:33.396Z,16.40
2023-04-02T11:15:01.912Z,16.40
2023-04-02T11:17:31.775Z,16.40
2023-04-02T11:20:25.686Z,16.30
2023-04-02T11:23:05.841Z,16.30
2023-04-02T11:25:34.420Z,16.30
2023-04-02T11:28:14.368Z,16.40
2023-04-02T11:30:43.230Z,16.50
2023-04-02T11:33:36.628Z,16.40
2023-04-02T11:36:06.945Z,16.30
2023-04-02T11:38:52.974Z,16.30
2023-04-02T11:41:36.376Z,16.40
2023-04-02T11:44:05.489Z,16.40
2023-04-02T11:46:45.625Z,16.30
2023-04-02T11:49:32.726Z,16.30
2023-04-02T11:52:11.326Z,16.20
2023-04-02T11:54:41.840Z,16.30
2023-04-02T11:57:14.504Z,16.40
2023-04-02T11:59:48.343Z,16.50
2023-04-02T12:02:21.362Z,16.60
2023-04-02T12:04:58.498Z,16.50
2023-04-02T12:07:35.998Z,16.60
2023-04-02T12:10:06.072Z,16.50
2023-04-02T12:12:35.586Z,16.60
2023-04-02T12:15:04.496Z,16.80
2023-04-02T12:17:34.891Z,16.80
2023-04-02T12:20:09.838Z,16.80
2023-04-02T12:22:41.540Z,16.90
2023-04-02T12:25:22.890Z,16.90
2023-04-02T12:28:04.018Z,16.80
2023-04-02T12:30:32.513Z,16.80
2023-04-02T12:33:15.219Z,16.80
2023-04-02T12:35:44.717Z,17.00
2023-04-02T12:38:24.451Z,16.80
2023-04-02T12:40:55.611Z,16.80
2023-04-02T12:43:25.017Z,16.70
2023-04-02T12:45:54.276Z,16.50
2023-04-02T12:48:23.156Z,16.60
2023-04-02T12:50:52.224Z,16.60
2023-04-02T12:53:22.880Z,16.60
2023-04-02T12:55:53.395Z,16.60
2023-04-02T12:58:29.623Z,16.50
2023-04-02T13:01:11.622Z,16.50
2023-04-02T13:03:40.158Z,16.50
2023-04-02T13:06:23.487Z,16.50
2023-04-02T13:08:52.322Z,16.50
2023-04-02T13:11:22.746Z,16.50
2023-04-02T13:13:51.374Z,16.60
2023-04-02T13:16:27.851Z,16.50
2023-04-02T13:19:10.558Z,16.40
2023-04-02T13:21:39.330Z,16.40
2023-04-02T13:24:16.961Z,16.50
2023-04-02T13:26:48.007Z,16.50
2023-04-02T13:29:24.815Z,16.50
2023-04-02T13:31:53.988Z,16.60
2023-04-02T13:34:22.740Z,16.50
2023-04-02T13:36:51.201Z,16.20
2023-04-02T13:39:20.719Z,16.30
2023-04-02T13:41:52.314Z,16.20
2023-04-02T13:44:22.469Z,16.20
2023-04-02T13:46:51.258Z,16.20
2023-04-02T13:49:19.740Z,16.30
2023-04-02T13:51:49.166Z,16.30
2023-04-02T13:54:22.501Z,16.30
2023-04-02T13:56:52.893Z,16.20
2023-04-02T13:59:21.485Z,16.40
2023-04-02T14:01:51.222Z,16.60
2023-04-02T14:04:22.051Z,16.60
2023-04-02T14:07:05.120Z,16.60
2023-04-02T14:09:38.466Z,16.40
2023-04-02T14:12:14.217Z,16.30
2023-04-02T14:14:52.557Z,16.30
2023-04-02T14:17:25.850Z,16.30
2023-04-02T14:20:01.304Z,16.30
2023-04-02T14:22:37.918Z,16.20
2023-04-02T14:25:12.179Z,16.20
2023-04-02T14:27:46.945Z,16.20
2023-04-02T14:30:18.608Z,16.30
2023-04-02T14:32:52.582Z,16.50
2023-04-02T14:35:24.324Z,16.40
2023-04-02T14:37:57.396Z,16.40
2023-04-02T14:40:28.457Z,16.40
2023-04-02T14:43:01.950Z,16.40
2023-04-02T14:45:43.462Z,16.40
2023-04-02T14:48:17.761Z,16.30
2023-04-02T14:50:46.474Z,16.20
2023-04-02T14:53:17.077Z,16.10
2023-04-02T14:55:47.202Z,16.20
2023-04-02T14:58:20.133Z,16.00
2023-04-02T15:00:52.962Z,15.90
2023-04-02T15:03:23.706Z,15.90
2023-04-02T15:05:55.116Z,15.90
2023-04-02T15:08:25.872Z,15.90
2023-04-02T15:11:03.404Z,15.90
2023-04-02T15:13:37.152Z,16.10
2023-04-02T15:16:11.561Z,16.10
2023-04-02T15:18:40.724Z,16.00
2023-04-02T15:21:12.030Z,16.10
2023-04-02T15:23:46.745Z,15.90
2023-04-02T15:26:19.613Z,15.90
2023-04-02T15:28:51.089Z,16.00
2023-04-02T15:31:21.694Z,16.00
2023-04-02T15:33:51.753Z,15.90
2023-04-02T15:36:37.766Z,15.80
2023-04-02T15:39:17.731Z,15.90
2023-04-02T15:41:50.936Z,15.80
2023-04-02T15:44:20.864Z,15.80
2023-04-02T15:46:55.610Z,15.80
2023-04-02T15:49:37.109Z,15.70
2023-04-02T15:52:09.191Z,15.70
2023-04-02T15:54:49.710Z,15.60
2023-04-02T15:57:23.492Z,15.60
2023-04-02T16:00:04.269Z,15.60
2023-04-02T16:02:40.685Z,15.70
2023-04-02T16:05:15.795Z,15.70
2023-04-02T16:08:00.189Z,15.80
2023-04-02T16:10:41.074Z,15.80
2023-04-02T16:13:14.890Z,15.80
2023-04-02T16:15:46.203Z,15.80
2023-04-02T16:18:18.293Z,15.80
2023-04-02T16:20:48.242Z,15.80
2023-04-02T16:23:18.502Z,15.80
2023-04-02T16:25:53.691Z,15.70
2023-04-02T16:28:25.194Z,15.70
2023-04-02T16:30:59.188Z,15.70
2023-04-02T16:33:33.819Z,15.70
2023-04-02T16:36:07.298Z,15.60
2023-04-02T16:38:44.888Z,15.60
2023-04-02T16:41:18.242Z,15.60
2023-04-02T16:43:50.067Z,15.40
2023-04-02T16:46:36.343Z,15.50
2023-04-02T16:49:12.444Z,15.50
2023-04-02T16:51:43.066Z,15.60
2023-04-02T16:54:13.187Z,15.60
2023-04-02T16:56:50.764Z,15.40
2023-04-02T16:59:21.217Z,15.40
2023-04-02T17:01:55.784Z,15.50
2023-04-02T17:04:39.093Z,15.40
2023-04-02T17:07:11.557Z,15.30
2023-04-02T17:09:43.543Z,15.40
2023-04-02T17:12:16.554Z,15.30
2023-04-02T17:14:50.905Z,15.20
2023-04-02T17:17:21.194Z,15.10
2023-04-02T17:19:51.423Z,15.20
2023-04-02T17:22:21.454Z,15.20
2023-04-02T17:24:51.711Z,15.30
2023-04-02T17:27:23.015Z,15.30
2023-04-02T17:29:53.840Z,15.30
2023-04-02T17:32:25.690Z,15.20
2023-04-02T17:34:54.320Z,15.10
2023-04-02T17:37:27.760Z,15.00
2023-04-02T17:40:01.474Z,14.80
2023-04-02T17:42:36.054Z,14.90
2023-04-02T17:45:08.868Z,14.60
2023-04-02T17:47:47.536Z,14.60
2023-04-02T17:50:34.532Z,14.70
2023-04-02T17:53:09.490Z,14.80
2023-04-02T17:55:44.163Z,14.70
2023-04-02T17:58:19.809Z,14.70
2023-04-02T18:00:54.287Z,14.70
2023-04-02T18:03:30.033Z,14.70
2023-04-02T18:06:00.956Z,14.70
2023-04-02T18:08:33.385Z,14.70
2023-04-02T18:11:08.871Z,14.60
2023-04-02T18:13:38.447Z,14.50
2023-04-02T18:16:22.818Z,14.30
2023-04-02T18:19:03.461Z,14.30
2023-04-02T18:21:33.194Z,14.20
2023-04-02T18:24:08.341Z,14.10
2023-04-02T18:26:40.860Z,14.00
2023-04-02T18:29:16.123Z,14.00
2023-04-02T18:31:49.245Z,14.00
2023-04-02T18:34:44.925Z,14.00
2023-04-02T18:37:20.185Z,14.00
2023-04-02T18:39:56.260Z,14.00
2023-04-02T18:42:33.092Z,14.10
2023-04-02T18:45:04.689Z,14.00
2023-04-02T18:47:36.367Z,13.90
2023-04-02T18:50:15.836Z,13.90
2023-04-02T18:52:45.976Z,13.90
2023-04-02T18:55:16.289Z,13.80
2023-04-02T18:57:46.258Z,13.70
2023-04-02T19:00:20.893Z,13.70
2023-04-02T19:02:50.566Z,13.80
2023-04-02T19:05:23.496Z,13.80
2023-04-02T19:07:56.072Z,13.80
2023-04-02T19:10:28.313Z,13.80
2023-04-02T19:12:56.973Z,13.80
2023-04-02T19:15:29.582Z,13.80
2023-04-02T19:18:01.914Z,13.80
2023-04-02T19:20:34.297Z,13.80
2023-04-02T19:23:10.438Z,13.80
2023-04-02T19:25:47.281Z,13.90
2023-04-02T19:28:19.076Z,13.80
2023-04-02T19:31:06.095Z,13.90
2023-04-02T19:33:41.239Z,13.80
2023-04-02T19:36:16.626Z,13.70
2023-04-02T19:38:52.458Z,13.70
2023-04-02T19:41:26.796Z,13.70
2023-04-02T19:43:56.037Z,13.70
2023-04-02T19:46:25.588Z,13.70
2023-04-02T19:48:57.845Z,13.80
2023-04-02T19:51:26.358Z,13.80
2023-04-02T19:53:56.304Z,13.80
2023-04-02T19:56:24.808Z,13.80
2023-04-02T19:58:53.307Z,13.70
2023-04-02T20:01:22.192Z,13.80
2023-04-02T20:03:50.701Z,13.90
2023-04-02T20:06:19.237Z,13.80
2023-04-02T20:08:47.621Z,13.80
2023-04-02T20:11:17.623Z,13.80
2023-04-02T20:13:45.959Z,13.80
2023-04-02T20:16:14.634Z,13.80
2023-04-02T20:18:43.601Z,13.80
2023-04-02T20:21:12.068Z,13.80
2023-04-02T20:23:40.648Z,13.70
2023-04-02T20:26:09.231Z,13.70
2023-04-02T20:28:39.078Z,13.80
2023-04-02T20:31:08.717Z,13.70
2023-04-02T20:33:37.946Z,13.80
2023-04-02T20:36:07.376Z,13.80
2023-04-02T20:38:37.548Z,13.90
2023-04-02T20:41:07.331Z,13.90
2023-04-02T20:43:36.222Z,13.90
2023-04-02T20:46:08.979Z,13.90
2023-04-02T20:48:39.591Z,14.00
2023-04-02T20:51:09.450Z,13.90
2023-04-02T20:53:38.492Z,13.90
2023-04-02T20:56:07.678Z,13.80
2023-04-02T20:58:36.726Z,13.80
2023-04-02T21:01:10.886Z,13.80
2023-04-02T21:03:40.064Z,13.70
2023-04-02T21:06:08.944Z,13.80
2023-04-02T21:08:37.543Z,13.90
2023-04-02T21:11:06.637Z,13.80
2023-04-02T21:13:36.278Z,13.90
2023-04-02T21:16:05.058Z,13.80
2023-04-02T21:18:35.325Z,13.80
2023-04-02T21:21:05.060Z,13.70
2023-04-02T21:23:34.179Z,13.70
2023-04-02T21:26:04.249Z,13.80
2023-04-02T21:28:33.245Z,13.80
2023-04-02T21:31:05.322Z,13.70
2023-04-02T21:33:38.717Z,13.80
2023-04-02T21:36:08.321Z,13.70
2023-04-02T21:38:38.205Z,13.70
2023-04-02T21:41:13.912Z,13.80
2023-04-02T21:43:42.408Z,13.80
2023-04-02T21:46:10.891Z,13.70
2023-04-02T21:48:41.938Z,13.80
2023-04-02T21:51:11.216Z,13.70
2023-04-02T21:53:40.012Z,13.60
2023-04-02T21:56:09.584Z,13.60
2023-04-02T21:58:38.038Z,13.60
2023-04-02T22:01:09.111Z,13.60
2023-04-02T22:03:41.557Z,13.70
2023-04-02T22:06:11.862Z,13.70
2023-04-02T22:08:40.868Z,13.60
2023-04-02T22:11:10.457Z,13.60
2023-04-02T22:13:39.192Z,13.60
2023-04-02T22:16:08.424Z,13.70
2023-04-02T22:18:37.003Z,13.70
2023-04-02T22:21:07.113Z,13.60
2023-04-02T22:23:35.996Z,13.60
2023-04-02T22:26:05.050Z,13.70
2023-04-02T22:28:33.702Z,13.70
2023-04-02T22:31:04.961Z,13.70
2023-04-02T22:33:33.882Z,13.70
2023-04-02T22:36:02.804Z,13.70
2023-04-02T22:38:32.879Z,13.70
2023-04-02T22:41:05.113Z,13.60
2023-04-02T22:43:33.670Z,13.60
2023-04-02T22:46:02.280Z,13.60
2023-04-02T22:48:30.929Z,13.60
2023-04-02T22:50:59.618Z,13.70
2023-04-02T22:53:28.390Z,13.60
2023-04-02T22:56:02.719Z,13.60
2023-04-02T22:58:31.180Z,13.60
2023-04-02T23:01:03.154Z,13.60
2023-04-02T23:03:31.811Z,13.60
2023-04-02T23:06:00.673Z,13.70
2023-04-02T23:08:29.275Z,13.60
2023-04-02T23:11:03.091Z,13.60
2023-04-02T23:13:31.869Z,13.60
2023-04-02T23:16:01.821Z,13.60
2023-04-02T23:18:30.398Z,13.60
2023-04-02T23:20:58.859Z,13.70
2023-04-02T23:23:27.755Z,13.60
2023-04-02T23:26:05.462Z,13.60
2023-04-02T23:28:34.323Z,13.60
2023-04-02T23:31:02.996Z,13.70
2023-04-02T23:33:31.626Z,13.70
2023-04-02T23:36:00.116Z,13.60
2023-04-02T23:38:28.616Z,13.60
2023-04-02T23:40:57.134Z,13.60
2023-04-02T23:43:26.954Z,13.60
2023-04-02T23:45:55.353Z,13.60
2023-04-02T23:48:23.925Z,13.60
2023-04-02T23:50:52.370Z,13.60
2023-04-02T23:53:20.853Z,13.50
2023-04-02T23:55:49.827Z,13.60
2023-04-02T23:58:18.414Z,13.50
